sensor_id;sensor_type;location;lat;lon;timestamp;temperature;humidity
4655;DHT22;2340;47.814;9.798;2023-04-01T00:00:51;6.70;99.90
4655;DHT22;2340;47.814;9.798;2023-04-01T00:03:17;6.70;99.90
4655;DHT22;2340;47.814;9.798;2023-04-01T00:05:43;6.70;99.90
4655;DHT22;2340;47.814;9.798;2023-04-01T00:08:08;6.70;99.90
4655;DHT22;2340;47.814;9.798;2023-04-01T00:10:34;6.60;99.90
4655;DHT22;2340;47.814;9.798;2023-04-01T00:12:59;6.60;99.90
4655;DHT22;2340;47.814;9.798;2023-04-01T00:15:25;6.60;99.90
4655;DHT22;2340;47.814;9.798;2023-04-01T00:17:51;6.60;99.90
4655;DHT22;2340;47.814;9.798;2023-04-01T00:20:16;6.60;99.90
4655;DHT22;2340;47.814;9.798;2023-04-01T00:22:42;6.60;99.90
4655;DHT22;2340;47.814;9.798;2023-04-01T00:25:07;6.50;99.90
4655;DHT22;2340;47.814;9.798;2023-04-01T00:27:33;6.50;99.90
4655;DHT22;2340;47.814;9.798;2023-04-01T00:29:59;6.50;99.90
4655;DHT22;2340;47.814;9.798;2023-04-01T00:32:24;6.50;99.90
4655;DHT22;2340;47.814;9.798;2023-04-01T00:34:51;6.40;99.90
4655;DHT22;2340;47.814;9.798;2023-04-01T00:37:17;6.40;99.90
4655;DHT22;2340;47.814;9.798;2023-04-01T00:39:43;6.40;99.90
4655;DHT22;2340;47.814;9.798;2023-04-01T00:42:09;6.40;99.90
4655;DHT22;2340;47.814;9.798;2023-04-01T00:44:36;6.30;99.90
4655;DHT22;2340;47.814;9.798;2023-04-01T00:47:02;6.30;99.90
4655;DHT22;2340;47.814;9.798;2023-04-01T00:49:34;6.20;99.90
4655;DHT22;2340;47.814;9.798;2023-04-01T00:52:01;6.20;99.90
4655;DHT22;2340;47.814;9.798;2023-04-01T00:54:27;6.30;99.90
4655;DHT22;2340;47.814;9.798;2023-04-01T00:56:55;6.30;99.90
4655;DHT22;2340;47.814;9.798;2023-04-01T00:59:31;6.30;99.90
4655;DHT22;2340;47.814;9.798;2023-04-01T01:01:58;6.30;99.90
4655;DHT22;2340;47.814;9.798;2023-04-01T01:04:26;6.30;99.90
4655;DHT22;2340;47.814;9.798;2023-04-01T01:12:14;6.20;99.90
4655;DHT22;2340;47.814;9.798;2023-04-01T01:14:47;6.20;99.90
4655;DHT22;2340;47.814;9.798;2023-04-01T01:22:36;6.00;99.90
4655;DHT22;2340;47.814;9.798;2023-04-01T01:27:31;6.00;99.90
4655;DHT22;2340;47.814;9.798;2023-04-01T01:32:55;5.90;99.90
4655;DHT22;2340;47.814;9.798;2023-04-01T01:35:24;5.80;99.90
4655;DHT22;2340;47.814;9.798;2023-04-01T01:37:53;5.80;99.90
4655;DHT22;2340;47.814;9.798;2023-04-01T01:40:20;5.80;99.90
4655;DHT22;2340;47.814;9.798;2023-04-01T01:42:48;5.80;99.90
4655;DHT22;2340;47.814;9.798;2023-04-01T01:45:16;5.80;99.90
4655;DHT22;2340;47.814;9.798;2023-04-01T01:47:43;5.70;99.90
4655;DHT22;2340;47.814;9.798;2023-04-01T01:50:10;5.70;99.90
4655;DHT22;2340;47.814;9.798;2023-04-01T01:52:36;5.70;99.90
4655;DHT22;2340;47.814;9.798;2023-04-01T01:55:02;5.70;99.90
4655;DHT22;2340;47.814;9.798;2023-04-01T01:57:33;5.60;99.90
4655;DHT22;2340;47.814;9.798;2023-04-01T02:00:02;5.60;99.90
4655;DHT22;2340;47.814;9.798;2023-04-01T02:02:29;5.60;99.90
4655;DHT22;2340;47.814;9.798;2023-04-01T02:04:57;5.60;99.90
4655;DHT22;2340;47.814;9.798;2023-04-01T02:07:28;5.60;99.90
4655;DHT22;2340;47.814;9.798;2023-04-01T02:09:55;5.70;99.90
4655;DHT22;2340;47.814;9.798;2023-04-01T02:12:21;5.60;99.90
4655;DHT22;2340;47.814;9.798;2023-04-01T02:15:09;5.70;99.90
4655;DHT22;2340;47.814;9.798;2023-04-01T02:17:34;5.70;99.90
4655;DHT22;2340;47.814;9.798;2023-04-01T02:20:02;5.70;99.90
4655;DHT22;2340;47.814;9.798;2023-04-01T02:22:39;5.70;99.90
4655;DHT22;2340;47.814;9.798;2023-04-01T02:25:08;5.70;99.90
4655;DHT22;2340;47.814;9.798;2023-04-01T02:27:34;5.70;99.90
4655;DHT22;2340;47.814;9.798;2023-04-01T02:30:00;5.70;99.90
4655;DHT22;2340;47.814;9.798;2023-04-01T02:32:26;5.70;99.90
4655;DHT22;2340;47.814;9.798;2023-04-01T02:34:52;5.70;99.90
4655;DHT22;2340;47.814;9.798;2023-04-01T02:37:18;5.70;99.90
4655;DHT22;2340;47.814;9.798;2023-04-01T02:39:44;5.70;99.90
4655;DHT22;2340;47.814;9.798;2023-04-01T02:42:09;5.70;99.90
4655;DHT22;2340;47.814;9.798;2023-04-01T02:44:35;5.70;99.90
4655;DHT22;2340;47.814;9.798;2023-04-01T02:47:01;5.70;99.90
4655;DHT22;2340;47.814;9.798;2023-04-01T02:49:27;5.70;99.90
4655;DHT22;2340;47.814;9.798;2023-04-01T02:51:52;5.70;99.90
4655;DHT22;2340;47.814;9.798;2023-04-01T02:54:18;5.70;99.90
4655;DHT22;2340;47.814;9.798;2023-04-01T02:56:44;5.80;99.90
4655;DHT22;2340;47.814;9.798;2023-04-01T02:59:10;5.70;99.90
4655;DHT22;2340;47.814;9.798;2023-04-01T03:01:36;5.70;99.90
4655;DHT22;2340;47.814;9.798;2023-04-01T03:04:01;5.70;99.90
4655;DHT22;2340;47.814;9.798;2023-04-01T03:06:27;5.70;99.90
4655;DHT22;2340;47.814;9.798;2023-04-01T03:08:52;5.80;99.90
4655;DHT22;2340;47.814;9.798;2023-04-01T03:11:18;5.80;99.90
4655;DHT22;2340;47.814;9.798;2023-04-01T03:13:43;5.80;99.90
4655;DHT22;2340;47.814;9.798;2023-04-01T03:16:09;5.80;99.90
4655;DHT22;2340;47.814;9.798;2023-04-01T03:18:35;5.80;99.90
4655;DHT22;2340;47.814;9.798;2023-04-01T03:21:16;5.80;99.90
4655;DHT22;2340;47.814;9.798;2023-04-01T03:23:42;5.80;99.90
4655;DHT22;2340;47.814;9.798;2023-04-01T03:26:07;5.80;99.90
4655;DHT22;2340;47.814;9.798;2023-04-01T03:28:33;5.70;99.90
4655;DHT22;2340;47.814;9.798;2023-04-01T03:30:59;5.70;99.90
4655;DHT22;2340;47.814;9.798;2023-04-01T03:33:24;5.80;99.90
4655;DHT22;2340;47.814;9.798;2023-04-01T03:35:50;5.80;99.90
4655;DHT22;2340;47.814;9.798;2023-04-01T03:38:17;5.70;99.90
4655;DHT22;2340;47.814;9.798;2023-04-01T03:40:43;5.70;99.90
4655;DHT22;2340;47.814;9.798;2023-04-01T03:43:08;5.70;99.90
4655;DHT22;2340;47.814;9.798;2023-04-01T03:45:35;5.70;99.90
4655;DHT22;2340;47.814;9.798;2023-04-01T03:48:01;5.70;99.90
4655;DHT22;2340;47.814;9.798;2023-04-01T03:50:26;5.70;99.90
4655;DHT22;2340;47.814;9.798;2023-04-01T03:52:52;5.80;99.90
4655;DHT22;2340;47.814;9.798;2023-04-01T03:55:17;5.80;99.90
4655;DHT22;2340;47.814;9.798;2023-04-01T03:57:43;5.80;99.90
4655;DHT22;2340;47.814;9.798;2023-04-01T04:00:09;5.70;99.90
4655;DHT22;2340;47.814;9.798;2023-04-01T04:02:34;5.70;99.90
4655;DHT22;2340;47.814;9.798;2023-04-01T04:05:01;5.70;99.90
4655;DHT22;2340;47.814;9.798;2023-04-01T04:07:26;5.70;99.90
4655;DHT22;2340;47.814;9.798;2023-04-01T04:09:52;5.70;99.90
4655;DHT22;2340;47.814;9.798;2023-04-01T04:12:17;5.70;99.90
4655;DHT22;2340;47.814;9.798;2023-04-01T04:14:43;5.70;99.90
4655;DHT22;2340;47.814;9.798;2023-04-01T04:17:10;5.80;99.90
4655;DHT22;2340;47.814;9.798;2023-04-01T04:19:41;5.70;99.90
4655;DHT22;2340;47.814;9.798;2023-04-01T04:22:07;5.70;99.90
4655;DHT22;2340;47.814;9.798;2023-04-01T04:24:33;5.70;99.90
4655;DHT22;2340;47.814;9.798;2023-04-01T04:26:59;5.80;99.90
4655;DHT22;2340;47.814;9.798;2023-04-01T04:29:24;5.80;99.90
4655;DHT22;2340;47.814;9.798;2023-04-01T04:31:50;5.70;99.90
4655;DHT22;2340;47.814;9.798;2023-04-01T04:34:15;5.80;99.90
4655;DHT22;2340;47.814;9.798;2023-04-01T04:36:41;5.80;99.90
4655;DHT22;2340;47.814;9.798;2023-04-01T04:39:06;5.80;99.90
4655;DHT22;2340;47.814;9.798;2023-04-01T04:41:32;5.80;99.90
4655;DHT22;2340;47.814;9.798;2023-04-01T04:43:57;5.80;99.90
4655;DHT22;2340;47.814;9.798;2023-04-01T04:46:23;5.80;99.90
4655;DHT22;2340;47.814;9.798;2023-04-01T04:48:49;5.80;99.90
4655;DHT22;2340;47.814;9.798;2023-04-01T04:51:15;5.80;99.90
4655;DHT22;2340;47.814;9.798;2023-04-01T04:53:41;5.80;99.90
4655;DHT22;2340;47.814;9.798;2023-04-01T04:56:06;5.80;99.90
4655;DHT22;2340;47.814;9.798;2023-04-01T04:58:32;5.80;99.90
4655;DHT22;2340;47.814;9.798;2023-04-01T05:00:59;5.80;99.90
4655;DHT22;2340;47.814;9.798;2023-04-01T05:03:24;5.80;99.90
4655;DHT22;2340;47.814;9.798;2023-04-01T05:05:51;5.80;99.90
4655;DHT22;2340;47.814;9.798;2023-04-01T05:08:16;5.70;99.90
4655;DHT22;2340;47.814;9.798;2023-04-01T05:10:42;5.80;99.90
4655;DHT22;2340;47.814;9.798;2023-04-01T05:13:07;5.80;99.90
4655;DHT22;2340;47.814;9.798;2023-04-01T05:15:33;5.80;99.90
4655;DHT22;2340;47.814;9.798;2023-04-01T05:17:59;5.80;99.90
4655;DHT22;2340;47.814;9.798;2023-04-01T05:20:24;5.80;99.90
4655;DHT22;2340;47.814;9.798;2023-04-01T05:22:50;5.80;99.90
4655;DHT22;2340;47.814;9.798;2023-04-01T05:25:15;5.80;99.90
4655;DHT22;2340;47.814;9.798;2023-04-01T05:27:40;5.80;99.90
4655;DHT22;2340;47.814;9.798;2023-04-01T05:30:06;5.80;99.90
4655;DHT22;2340;47.814;9.798;2023-04-01T05:32:32;5.80;99.90
4655;DHT22;2340;47.814;9.798;2023-04-01T05:34:57;5.80;99.90
4655;DHT22;2340;47.814;9.798;2023-04-01T05:37:23;5.80;99.90
4655;DHT22;2340;47.814;9.798;2023-04-01T05:39:48;5.90;99.90
4655;DHT22;2340;47.814;9.798;2023-04-01T05:42:14;5.80;99.90
4655;DHT22;2340;47.814;9.798;2023-04-01T05:44:40;5.80;99.90
4655;DHT22;2340;47.814;9.798;2023-04-01T05:47:06;5.80;99.90
4655;DHT22;2340;47.814;9.798;2023-04-01T05:49:33;5.80;99.90
4655;DHT22;2340;47.814;9.798;2023-04-01T05:51:58;5.80;99.90
4655;DHT22;2340;47.814;9.798;2023-04-01T05:54:24;5.80;99.90
4655;DHT22;2340;47.814;9.798;2023-04-01T05:56:49;5.80;99.90
4655;DHT22;2340;47.814;9.798;2023-04-01T05:59:15;5.80;99.90
4655;DHT22;2340;47.814;9.798;2023-04-01T06:01:41;5.90;99.90
4655;DHT22;2340;47.814;9.798;2023-04-01T06:04:09;5.90;99.90
4655;DHT22;2340;47.814;9.798;2023-04-01T06:06:36;6.00;99.90
4655;DHT22;2340;47.814;9.798;2023-04-01T06:09:07;6.00;99.90
4655;DHT22;2340;47.814;9.798;2023-04-01T06:16:49;6.00;99.90
4655;DHT22;2340;47.814;9.798;2023-04-01T06:32:45;6.10;99.90
4655;DHT22;2340;47.814;9.798;2023-04-01T06:45:34;6.40;99.90
4655;DHT22;2340;47.814;9.798;2023-04-01T06:50:35;7.30;99.90
4655;DHT22;2340;47.814;9.798;2023-04-01T06:55:41;7.10;99.90
4655;DHT22;2340;47.814;9.798;2023-04-01T06:58:18;7.00;99.90
4655;DHT22;2340;47.814;9.798;2023-04-01T07:00:44;6.90;99.90
4655;DHT22;2340;47.814;9.798;2023-04-01T07:05:54;6.80;99.90
4655;DHT22;2340;47.814;9.798;2023-04-01T07:08:23;6.90;99.90
4655;DHT22;2340;47.814;9.798;2023-04-01T07:11:01;6.90;99.90
4655;DHT22;2340;47.814;9.798;2023-04-01T07:13:39;6.90;99.90
4655;DHT22;2340;47.814;9.798;2023-04-01T07:16:08;6.90;99.90
4655;DHT22;2340;47.814;9.798;2023-04-01T07:18:41;7.00;99.90
4655;DHT22;2340;47.814;9.798;2023-04-01T07:21:20;7.10;99.90
4655;DHT22;2340;47.814;9.798;2023-04-01T07:23:47;7.40;99.90
4655;DHT22;2340;47.814;9.798;2023-04-01T07:26:15;7.80;99.90
4655;DHT22;2340;47.814;9.798;2023-04-01T07:28:42;8.20;99.90
4655;DHT22;2340;47.814;9.798;2023-04-01T07:31:14;8.00;99.90
4655;DHT22;2340;47.814;9.798;2023-04-01T07:36:42;8.00;99.90
4655;DHT22;2340;47.814;9.798;2023-04-01T07:39:15;8.00;99.90
4655;DHT22;2340;47.814;9.798;2023-04-01T07:49:35;7.80;99.90
4655;DHT22;2340;47.814;9.798;2023-04-01T07:57:05;7.80;99.90
4655;DHT22;2340;47.814;9.798;2023-04-01T08:04:49;8.10;99.90
4655;DHT22;2340;47.814;9.798;2023-04-01T08:07:20;8.20;99.90
4655;DHT22;2340;47.814;9.798;2023-04-01T08:12:18;8.20;99.90
4655;DHT22;2340;47.814;9.798;2023-04-01T08:17:18;8.20;99.90
4655;DHT22;2340;47.814;9.798;2023-04-01T08:25:00;8.20;99.90
4655;DHT22;2340;47.814;9.798;2023-04-01T08:27:34;8.30;99.90
4655;DHT22;2340;47.814;9.798;2023-04-01T08:30:04;8.20;99.90
4655;DHT22;2340;47.814;9.798;2023-04-01T08:32:33;8.30;99.90
4655;DHT22;2340;47.814;9.798;2023-04-01T08:37:48;8.40;99.90
4655;DHT22;2340;47.814;9.798;2023-04-01T08:50:55;8.50;99.90
4655;DHT22;2340;47.814;9.798;2023-04-01T08:56:17;8.20;99.90
4655;DHT22;2340;47.814;9.798;2023-04-01T08:58:47;8.00;99.90
4655;DHT22;2340;47.814;9.798;2023-04-01T09:24:14;7.60;99.90
4655;DHT22;2340;47.814;9.798;2023-04-01T09:29:35;7.70;99.90
4655;DHT22;2340;47.814;9.798;2023-04-01T09:45:44;7.50;99.90
4655;DHT22;2340;47.814;9.798;2023-04-01T09:58:43;7.20;99.90
4655;DHT22;2340;47.814;9.798;2023-04-01T10:01:22;7.10;99.90
4655;DHT22;2340;47.814;9.798;2023-04-01T10:17:08;7.00;99.90
4655;DHT22;2340;47.814;9.798;2023-04-01T10:19:45;6.90;99.90
4655;DHT22;2340;47.814;9.798;2023-04-01T10:22:30;6.90;99.90
4655;DHT22;2340;47.814;9.798;2023-04-01T10:25:18;6.90;99.90
4655;DHT22;2340;47.814;9.798;2023-04-01T10:56:10;7.30;99.90
4655;DHT22;2340;47.814;9.798;2023-04-01T11:34:42;7.80;99.90
4655;DHT22;2340;47.814;9.798;2023-04-01T11:44:34;7.60;99.90
4655;DHT22;2340;47.814;9.798;2023-04-01T11:47:12;7.70;99.90
4655;DHT22;2340;47.814;9.798;2023-04-01T11:52:21;7.80;99.90
4655;DHT22;2340;47.814;9.798;2023-04-01T11:55:05;7.80;99.90
4655;DHT22;2340;47.814;9.798;2023-04-01T11:57:36;7.80;99.90
4655;DHT22;2340;47.814;9.798;2023-04-01T12:10:46;7.80;99.90
4655;DHT22;2340;47.814;9.798;2023-04-01T12:31:52;8.10;99.90
4655;DHT22;2340;47.814;9.798;2023-04-01T12:37:12;8.40;99.90
4655;DHT22;2340;47.814;9.798;2023-04-01T12:55:19;8.50;99.90
4655;DHT22;2340;47.814;9.798;2023-04-01T12:58:06;8.50;99.90
4655;DHT22;2340;47.814;9.798;2023-04-01T13:08:17;8.30;99.90
4655;DHT22;2340;47.814;9.798;2023-04-01T13:10:55;8.30;99.90
4655;DHT22;2340;47.814;9.798;2023-04-01T13:16:31;8.30;99.90
4655;DHT22;2340;47.814;9.798;2023-04-01T13:18:57;8.20;99.90
4655;DHT22;2340;47.814;9.798;2023-04-01T13:24:24;8.30;99.90
4655;DHT22;2340;47.814;9.798;2023-04-01T13:29:44;8.20;99.90
4655;DHT22;2340;47.814;9.798;2023-04-01T13:42:24;9.20;99.90
4655;DHT22;2340;47.814;9.798;2023-04-01T13:45:00;9.40;99.90
4655;DHT22;2340;47.814;9.798;2023-04-01T14:08:40;8.60;99.90
4655;DHT22;2340;47.814;9.798;2023-04-01T14:29:15;8.50;99.90
4655;DHT22;2340;47.814;9.798;2023-04-01T14:50:04;9.20;99.90
4655;DHT22;2340;47.814;9.798;2023-04-01T14:52:31;9.10;99.90
4655;DHT22;2340;47.814;9.798;2023-04-01T14:54:59;8.90;99.90
4655;DHT22;2340;47.814;9.798;2023-04-01T14:57:27;8.80;99.90
4655;DHT22;2340;47.814;9.798;2023-04-01T14:59:54;8.70;99.90
4655;DHT22;2340;47.814;9.798;2023-04-01T15:04:52;8.60;99.90
4655;DHT22;2340;47.814;9.798;2023-04-01T15:12:17;8.50;99.90
4655;DHT22;2340;47.814;9.798;2023-04-01T15:17:54;8.50;99.90
4655;DHT22;2340;47.814;9.798;2023-04-01T15:20:21;8.50;99.90
4655;DHT22;2340;47.814;9.798;2023-04-01T15:31:19;8.50;99.90
4655;DHT22;2340;47.814;9.798;2023-04-01T15:38:49;8.40;99.90
4655;DHT22;2340;47.814;9.798;2023-04-01T15:44:01;8.40;99.90
4655;DHT22;2340;47.814;9.798;2023-04-01T15:46:46;8.40;99.90
4655;DHT22;2340;47.814;9.798;2023-04-01T15:51:56;8.30;99.90
4655;DHT22;2340;47.814;9.798;2023-04-01T16:02:12;8.00;99.90
4655;DHT22;2340;47.814;9.798;2023-04-01T16:07:17;8.10;99.90
4655;DHT22;2340;47.814;9.798;2023-04-01T16:15:08;8.10;99.90
4655;DHT22;2340;47.814;9.798;2023-04-01T16:17:40;8.10;99.90
4655;DHT22;2340;47.814;9.798;2023-04-01T16:22:35;8.10;99.90
4655;DHT22;2340;47.814;9.798;2023-04-01T16:38:08;7.90;99.90
4655;DHT22;2340;47.814;9.798;2023-04-01T16:43:06;7.80;99.90
4655;DHT22;2340;47.814;9.798;2023-04-01T16:51:04;7.80;99.90
4655;DHT22;2340;47.814;9.798;2023-04-01T16:53:37;7.80;99.90
4655;DHT22;2340;47.814;9.798;2023-04-01T16:56:13;7.80;99.90
4655;DHT22;2340;47.814;9.798;2023-04-01T16:58:41;7.80;99.90
4655;DHT22;2340;47.814;9.798;2023-04-01T17:01:09;7.70;99.90
4655;DHT22;2340;47.814;9.798;2023-04-01T17:03:39;7.70;99.90
4655;DHT22;2340;47.814;9.798;2023-04-01T17:11:18;7.60;99.90
4655;DHT22;2340;47.814;9.798;2023-04-01T17:13:47;7.60;99.90
4655;DHT22;2340;47.814;9.798;2023-04-01T17:21:43;7.50;99.90
4655;DHT22;2340;47.814;9.798;2023-04-01T17:29:59;7.50;99.90
4655;DHT22;2340;47.814;9.798;2023-04-01T17:37:37;7.90;99.90
4655;DHT22;2340;47.814;9.798;2023-04-01T17:45:11;8.80;99.90
4655;DHT22;2340;47.814;9.798;2023-04-01T17:47:55;8.90;99.90
4655;DHT22;2340;47.814;9.798;2023-04-01T17:52:56;8.80;99.90
4655;DHT22;2340;47.814;9.798;2023-04-01T17:55:37;8.60;99.90
4655;DHT22;2340;47.814;9.798;2023-04-01T17:58:20;8.40;99.90
4655;DHT22;2340;47.814;9.798;2023-04-01T18:13:44;7.50;99.90
4655;DHT22;2340;47.814;9.798;2023-04-01T18:19:27;7.40;99.90
4655;DHT22;2340;47.814;9.798;2023-04-01T18:21:55;7.30;99.90
4655;DHT22;2340;47.814;9.798;2023-04-01T18:27:30;7.30;99.90
4655;DHT22;2340;47.814;9.798;2023-04-01T18:29:55;7.30;99.90
4655;DHT22;2340;47.814;9.798;2023-04-01T18:32:37;7.20;99.90
4655;DHT22;2340;47.814;9.798;2023-04-01T18:37:42;7.10;99.90
4655;DHT22;2340;47.814;9.798;2023-04-01T18:50:39;7.00;99.90
4655;DHT22;2340;47.814;9.798;2023-04-01T18:53:15;7.00;99.90
4655;DHT22;2340;47.814;9.798;2023-04-01T18:55:51;7.00;99.90
4655;DHT22;2340;47.814;9.798;2023-04-01T19:05:53;6.90;99.90
4655;DHT22;2340;47.814;9.798;2023-04-01T19:16:13;7.00;99.90
4655;DHT22;2340;47.814;9.798;2023-04-01T19:34:06;7.00;99.90
4655;DHT22;2340;47.814;9.798;2023-04-01T19:47:14;6.90;99.90
4655;DHT22;2340;47.814;9.798;2023-04-01T19:59:48;6.80;99.90
4655;DHT22;2340;47.814;9.798;2023-04-01T20:10:35;6.70;99.90
4655;DHT22;2340;47.814;9.798;2023-04-01T20:17:58;6.60;99.90
4655;DHT22;2340;47.814;9.798;2023-04-01T20:20:26;6.50;99.90
4655;DHT22;2340;47.814;9.798;2023-04-01T20:22:55;6.50;99.90
4655;DHT22;2340;47.814;9.798;2023-04-01T20:44:04;6.40;99.90
4655;DHT22;2340;47.814;9.798;2023-04-01T20:46:34;6.40;99.90
4655;DHT22;2340;47.814;9.798;2023-04-01T20:49:21;6.40;99.90
4655;DHT22;2340;47.814;9.798;2023-04-01T20:52:01;6.40;99.90
4655;DHT22;2340;47.814;9.798;2023-04-01T20:56:57;6.40;99.90
4655;DHT22;2340;47.814;9.798;2023-04-01T21:07:42;6.40;99.90
4655;DHT22;2340;47.814;9.798;2023-04-01T21:12:53;6.40;99.90
4655;DHT22;2340;47.814;9.798;2023-04-01T21:18:10;6.40;99.90
4655;DHT22;2340;47.814;9.798;2023-04-01T21:20:44;6.40;99.90
4655;DHT22;2340;47.814;9.798;2023-04-01T21:25:48;6.30;99.90
4655;DHT22;2340;47.814;9.798;2023-04-01T21:52:23;6.20;99.90
4655;DHT22;2340;47.814;9.798;2023-04-01T22:04:59;6.20;99.90
4655;DHT22;2340;47.814;9.798;2023-04-01T22:08:13;6.20;99.90
4655;DHT22;2340;47.814;9.798;2023-04-01T22:12:50;6.20;99.90
4655;DHT22;2340;47.814;9.798;2023-04-01T22:15:40;6.20;99.90
4655;DHT22;2340;47.814;9.798;2023-04-01T22:19:11;6.20;99.90
4655;DHT22;2340;47.814;9.798;2023-04-01T22:26:18;6.10;99.90
4655;DHT22;2340;47.814;9.798;2023-04-01T22:28:56;6.10;99.90
4655;DHT22;2340;47.814;9.798;2023-04-01T22:31:28;6.20;99.90
4655;DHT22;2340;47.814;9.798;2023-04-01T22:34:00;6.20;99.90
4655;DHT22;2340;47.814;9.798;2023-04-01T22:41:30;6.20;99.90
4655;DHT22;2340;47.814;9.798;2023-04-01T22:43:59;6.10;99.90
4655;DHT22;2340;47.814;9.798;2023-04-01T22:49:36;6.10;99.90
4655;DHT22;2340;47.814;9.798;2023-04-01T22:56:55;6.10;99.90
4655;DHT22;2340;47.814;9.798;2023-04-01T23:04:58;6.10;99.90
4655;DHT22;2340;47.814;9.798;2023-04-01T23:09:51;6.10;99.90
4655;DHT22;2340;47.814;9.798;2023-04-01T23:12:16;6.10;99.90
4655;DHT22;2340;47.814;9.798;2023-04-01T23:14:43;6.10;99.90
4655;DHT22;2340;47.814;9.798;2023-04-01T23:22:34;6.10;99.90
4655;DHT22;2340;47.814;9.798;2023-04-01T23:25:12;6.10;99.90
4655;DHT22;2340;47.814;9.798;2023-04-01T23:27:45;6.00;99.90
4655;DHT22;2340;47.814;9.798;2023-04-01T23:33:08;6.10;99.90
4655;DHT22;2340;47.814;9.798;2023-04-01T23:35:35;6.10;99.90
4655;DHT22;2340;47.814;9.798;2023-04-01T23:38:11;6.00;99.90
4655;DHT22;2340;47.814;9.798;2023-04-01T23:40:37;6.00;99.90
4655;DHT22;2340;47.814;9.798;2023-04-01T23:43:02;6.00;99.90
4655;DHT22;2340;47.814;9.798;2023-04-01T23:45:37;6.00;99.90
4655;DHT22;2340;47.814;9.798;2023-04-01T23:48:03;6.00;99.90
4655;DHT22;2340;47.814;9.798;2023-04-01T23:50:28;6.00;99.90
4655;DHT22;2340;47.814;9.798;2023-04-01T23:55:26;6.00;99.90
